Anza Borrego Desert Research Center, California Weather observations

Data are for 10 minute period ending at time listed.
 Day   Time   Solar   Ave.   Ave.  Ave.  Vector  Max.   Baro.   Total    
  of    of     Rad.   Air    Rel.  Wind   Wind   Wind  Press.  Precip.   
Year   Day            Temp.  Hum.  Speed  Dir.   Gust                    
2016   (PST)  Kw/m2    F      %     mph   deg.    mph    mb.     in.     
-------------------------------------------------------------------------
  36   20:30   0.00   59.3    24   11.0   239    13.5   996.5    0.00 
  36   20:40   0.00   59.3    24   11.1   238    13.6   996.5    0.00 
  36   20:50   0.00   58.9    24   10.6   238    14.7   996.6    0.00 
  36   21:00   0.00   59.1    24   11.2   238    15.6   996.6    0.00 
  36   21:10   0.00   59.5    23    9.9   238    12.9   996.7    0.00 
  36   21:20   0.00   59.3    23   10.6   240    14.9   996.7    0.00 
  36   21:30   0.00   58.7    24    9.6   237    13.1   996.7    0.00 
  36   21:40   0.00   58.7    24   10.7   236    14.0   996.7    0.00 
  36   21:50   0.00   58.6    24   10.5   236    15.1   996.7    0.00 
  36   22:00   0.00   58.6    24   10.2   238    14.0   996.7    0.00 
  36   22:10   0.00   58.3    25   10.3   239    13.6   996.8    0.00 
  36   22:20   0.00   57.9    25   11.9   232    15.0   996.8    0.00 
  36   22:30   0.00   58.4    24   12.2   234    16.4   996.8    0.00 
  36   22:40   0.00   58.6    24   10.6   232    15.3   996.8    0.00 
  36   22:50   0.00   57.7    25    8.1   221    11.6   996.9    0.00 
  36   23:00   0.00   57.3    26    9.4   229    12.5   996.9    0.00 
  36   23:10   0.00   57.5    25    7.8   222    12.6   997.0    0.00 
  36   23:20   0.00   57.7    25    9.9   233    13.9   996.9    0.00 
  36   23:30   0.00   57.9    25   10.0   232    13.4   996.9    0.00 
  36   23:40   0.00   57.6    25   10.3   236    12.9   996.9    0.00 
  36   23:50   0.00   56.8    26   10.2   234    13.6   996.7    0.00 
  37    0:00   0.00   57.1    26   12.1   235    14.4   996.6    0.00 
  37    0:10   0.00   57.6    25   11.7   234    15.0   996.5    0.00 
  37    0:20   0.00   57.7    25   10.3   232    12.5   996.6    0.00 
  37    0:30   0.00   56.6    26    8.8   226    12.6   996.5    0.00 
  37    0:40   0.00   56.5    26    8.9   224    12.1   996.4    0.00 
  37    0:50   0.00   55.2    28    8.2   219    11.0   996.2    0.00 
  37    1:00   0.00   56.0    27   10.9   232    13.5   996.1    0.00 
  37    1:10   0.00   56.5    26   11.0   234    13.3   996.2    0.00 
  37    1:20   0.00   56.4    27    8.9   228    12.8   996.3    0.00 
  37    1:30   0.00   54.5    30    5.4   223     9.9   996.2    0.00 
  37    1:40   0.00   53.3    31    4.1   197     9.7   996.0    0.00 
  37    1:50   0.00   53.6    31    4.3   186     7.9   996.0    0.00 
  37    2:00   0.00   53.0    31    1.9   171     3.7   995.9    0.00 
  37    2:10   0.00   53.0    32    2.6   193     3.9   996.0    0.00 
  37    2:20   0.00   52.9    31    2.1   284     4.6   996.1    0.00 
  37    2:30   0.00   52.8    31    1.7   257     3.5   995.9    0.00 
  37    2:40   0.00   52.1    33    4.7   259     7.4   995.9    0.00 
  37    2:50   0.00   51.2    34    3.0   243     5.9   995.7    0.00 
  37    3:00   0.00   51.9    33    3.4   228     4.9   995.6    0.00 
  37    3:10   0.00   52.0    33    2.8   204     3.8   995.6    0.00 
  37    3:20   0.00   49.9    36    2.4   222     3.6   995.7    0.00 
  37    3:30   0.00   48.7    39    3.6   195     5.0   995.6    0.00 
  37    3:40   0.00   48.9    38    3.7   231     5.0   995.6    0.00 
  37    3:50   0.00   47.7    41    3.7   231     5.3   995.6    0.00 
  37    4:00   0.00   46.5    43    3.4   219     4.7   995.5    0.00 
  37    4:10   0.00   48.4    39    4.7   226     6.3   995.5    0.00 
  37    4:20   0.00   47.4    42    4.2   226     6.2   995.5    0.00 
  37    4:30   0.00   46.6    44    3.9   244     5.9   995.6    0.00 
  37    4:40   0.00   46.5    43    2.8   194     4.1   995.5    0.00 
  37    4:50   0.00   48.4    38    1.8   241     3.7   995.6    0.00 
  37    5:00   0.00   48.9    38    5.8   237     8.4   995.6    0.00 
  37    5:10   0.00   48.8    39    3.3   304     6.7   995.8    0.00 
  37    5:20   0.00   48.0    40    4.5   326     6.3   995.8    0.00 
  37    5:30   0.00   47.5    41    3.4   220     6.1   995.9    0.00 
  37    5:40   0.00   48.0    39    1.6   232     3.8   996.0    0.00 
  37    5:50   0.00   49.4    36    2.6   209     5.3   996.1    0.00 
  37    6:00   0.00   49.2    37    3.4   222     4.8   996.2    0.00 
  37    6:10   0.00   48.7    38    1.8   196     2.8   996.1    0.00 
  37    6:20   0.00   47.0    41    2.3   193     3.5   996.1    0.00 
  37    6:30   0.00   47.7    39    1.4   240     4.1   996.1    0.00 
  37    6:40   0.00   46.7    42    3.2   192     6.3   996.0    0.00 
  37    6:50   0.01   47.5    41    3.0   297     5.0   996.0    0.00 
  37    7:00   0.02   48.9    39    2.1   274     3.9   996.1    0.00 
  37    7:10   0.04   50.7    36    3.6   233     6.1   996.0    0.00 
  37    7:20   0.07   53.1    34    3.0   199     5.0   996.1    0.00 
  37    7:30   0.10   54.5    32    1.9   162     3.9   996.1    0.00 
  37    7:40   0.14   55.5    34    3.0   358     6.7   996.2    0.00 
  37    7:50   0.17   53.8    36    3.1    17     4.0   996.4    0.00 
  37    8:00   0.20   55.9    33    1.1   138     2.6   996.5    0.00 
  37    8:10   0.23   57.2    32    2.2   195     4.6   996.6    0.00 
  37    8:20   0.27   57.1    31    2.9   228     4.5   996.7    0.00 
  37    8:30   0.30   57.8    30    2.6   286     4.1   996.9    0.00 
  37    8:40   0.33   59.8    29    1.6     2     2.6   997.2    0.00 
  37    8:50   0.37   61.0    27    1.1    82     2.9   997.3    0.00 
  37    9:00   0.40   62.6    26    1.3   149     2.7   997.3    0.00 
  37    9:10   0.43   63.8    23    1.4   113     3.4   997.3    0.00 
  37    9:20   0.46   63.8    23    1.9    90     4.4   997.5    0.00 
  37    9:30   0.49   62.9    24    3.4    90     5.3   997.6    0.00 
  37    9:40   0.51   62.8    23    3.3   119     4.5   997.6    0.00 
  37    9:50   0.54   63.9    22    3.0   117     5.2   997.6    0.00 
  37   10:00   0.56   64.6    21    4.2   135     6.3   997.5    0.00 
  37   10:10   0.58   64.7    21    5.2   150     8.0   997.4    0.00 
  37   10:20   0.60   65.0    20    4.7   153     7.9   997.4    0.00 
  37   10:30   0.62   65.7    20    5.1   163     9.3   997.4    0.00 
  37   10:40   0.64   65.7    20    6.3   148     9.1   997.4    0.00 
  37   10:50   0.65   66.0    19    6.3   152     9.8   997.2    0.00 
  37   11:00   0.67   65.8    19    7.1   163    12.1   997.1    0.00 
  37   11:10   0.68   66.0    19    7.3   145    10.4   996.9    0.00 
  37   11:20   0.69   66.3    19    5.2   148     8.6   996.7    0.00 
  37   11:30   0.70   66.4    19    5.8   149    10.7   996.6    0.00 
  37   11:40   0.71   67.0    18    6.1   155    10.7   996.4    0.00 
  37   11:50   0.71   67.3    18    5.6   140    11.4   996.1    0.00 
  37   12:00   0.71   66.8    18    7.5   143    11.4   995.9    0.00 
  37   12:10   0.71   67.1    18    8.0   120    13.9   995.5    0.00 
  37   12:20   0.71   67.2    18    6.6   120    13.2   995.3    0.00 
  37   12:30   0.71   67.7    18    6.7   146    10.7   995.0    0.00 
  37   12:40   0.70   67.5    18    4.5   113    10.0   994.7    0.00 
  37   12:50   0.69   68.1    18    6.3   134    12.1   994.5    0.00 
  37   13:00   0.69   68.2    18    7.0   128    11.2   994.3    0.00 
  37   13:10   0.67   68.4    18    7.8   144    11.9   994.2    0.00 
  37   13:20   0.64   68.4    17    5.8   122    10.0   994.0    0.00 
  37   13:30   0.65   68.6    17    5.1   152     8.4   993.9    0.00 
  37   13:40   0.63   69.7    17    3.3   157     8.9   993.7    0.00 
  37   13:50   0.61   69.0    17    5.4   129     8.5   993.4    0.00 
  37   14:00   0.59   69.4    16    3.7   132     7.9   993.3    0.00 
  37   14:10   0.57   70.6    16    4.3   128     8.3   993.2    0.00 
  37   14:20   0.55   69.6    16    4.4   131     7.0   993.0    0.00 
  37   14:30   0.53   70.0    16    3.6   110     7.0   993.0    0.00 
  37   14:40   0.50   70.9    16    3.9   162     6.8   992.9    0.00 
  37   14:50   0.47   70.4    16    4.0   106     6.7   992.9    0.00 
  37   15:00   0.44   70.1    16    4.1   130     7.3   992.8    0.00 
  37   15:10   0.41   70.6    16    3.1   132     5.5   992.8    0.00 
  37   15:20   0.38   70.7    16    4.1   118     7.5   992.8    0.00 
  37   15:30   0.35   70.1    15    2.5    99     5.5   992.8    0.00 
  37   15:40   0.32   71.8    15    1.0    92     2.7   992.8    0.00 
  37   15:50   0.28   72.1    15    2.1   197     3.9   992.7    0.00 
  37   16:00   0.25   72.5    15    1.6   151     5.2   992.7    0.00 
  37   16:10   0.22   70.9    16    3.3   122     5.0   992.6    0.00 
  37   16:20   0.18   70.1    16    3.6   169     4.8   992.6    0.00 
  37   16:30   0.15   70.4    16    2.2   191     3.4   992.6    0.00 
  37   16:40   0.09   69.9    18    4.1   232     7.5   992.6    0.00 
  37   16:50   0.01   64.8    22    7.2   239     8.3   992.6    0.00 
  37   17:00   0.01   62.9    24    7.8   240     9.9   992.6    0.00 
  37   17:10   0.01   62.7    23    9.1   235    10.3   992.6    0.00 
  37   17:20   0.00   61.6    24    8.1   233     9.3   992.5    0.00 
  37   17:30   0.00   60.8    25    8.0   238    10.0   992.4    0.00 
  37   17:40   0.00   60.5    25    7.2   246     9.7   992.5    0.00 
  37   17:50   0.00   59.7    26    7.1   255     8.8   992.5    0.00 
  37   18:00   0.00   59.6    26    7.4   250     8.9   992.5    0.00 
  37   18:10   0.00   60.0    25    7.4   249     9.8   992.5    0.00 
  37   18:20   0.00   60.2    25    7.7   246     9.3   992.4    0.00 
  37   18:30   0.00   60.3    24    8.2   240    10.6   992.4    0.00 
  37   18:40   0.00   59.0    26    7.6   248     9.7   992.4    0.00 
  37   18:50   0.00   58.8    26    7.9   244     9.5   992.4    0.00 
  37   19:00   0.00   58.4    26    7.9   248     9.6   992.4    0.00 
  37   19:10   0.00   58.9    25    8.7   242    10.4   992.5    0.00 
  37   19:20   0.00   59.1    25    8.5   245    10.8   992.5    0.00 
  37   19:30   0.00   58.7    26    8.2   246    10.9   992.6    0.00 
  37   19:40   0.00   59.5    24    8.0   248    11.4   992.6    0.00 
  37   19:50   0.00   58.6    25    8.6   246    11.8   992.6    0.00 
  37   20:00   0.00   58.7    25    7.7   249    10.3   992.7    0.00 
  37   20:10   0.00   58.6    25    6.4   252     8.6   992.6    0.00 
  37   20:20   0.00   59.9    23    6.7   244     9.8   992.7    0.00 

Return to Anza Borrego Desert Research Center graphs page.


Western Regional Climate Center,wrcc@dri.edu